Time;durP1;ratioP1;P1;durP2;ratioP2;P2;SDS_P1;SDS_P2;PMS_P1;PMS_P2;Temp;Humidity;BMP_temperature;BMP_pressure;BME280_temperature;BME280_humidity;BME280_pressure;Samples;Min_cycle;Max_cycle;Signal;HPM_P1;HPM_P2
2022/03/24 00:02:05;;;;;;;70.38;48.25;;;7.20;99.90;;;;;;4962935;29;20083;-58
2022/03/24 00:04:31;;;;;;;72.47;49.70;;;7.10;99.90;;;;;;4963715;28;20080;-57
2022/03/24 00:06:56;;;;;;;75.53;50.47;;;7.10;99.90;;;;;;4961357;29;20066;-57
2022/03/24 00:09:22;;;;;;;75.05;49.65;;;7.10;99.90;;;;;;4964043;28;20047;-57
2022/03/24 00:11:48;;;;;;;73.93;48.05;;;7.10;99.90;;;;;;4962655;28;20035;-58
2022/03/24 00:14:16;;;;;;;72.43;48.47;;;7.00;99.90;;;;;;4964057;28;20055;-58
2022/03/24 00:16:43;;;;;;;79.47;51.63;;;7.10;99.90;;;;;;4962618;29;20058;-58
2022/03/24 00:19:09;;;;;;;69.75;47.03;;;7.00;99.90;;;;;;4963024;28;20051;-58
2022/03/24 00:21:35;;;;;;;63.22;44.05;;;7.00;99.90;;;;;;4963575;28;20055;-58
2022/03/24 00:24:01;;;;;;;66.40;43.72;;;7.00;99.90;;;;;;4962317;28;20134;-57
2022/03/24 00:26:27;;;;;;;69.40;45.58;;;6.90;99.90;;;;;;4963703;28;20065;-58
2022/03/24 00:28:52;;;;;;;67.82;43.03;;;6.90;99.90;;;;;;4962250;29;20102;-58
2022/03/24 00:31:19;;;;;;;72.25;45.80;;;6.80;99.90;;;;;;4963681;28;20039;-58
2022/03/24 00:33:45;;;;;;;75.15;47.75;;;6.90;99.90;;;;;;4962573;29;20135;-56
2022/03/24 00:36:11;;;;;;;78.85;48.78;;;6.80;99.90;;;;;;4962983;29;20055;-58
2022/03/24 00:38:37;;;;;;;70.03;45.58;;;6.80;99.90;;;;;;4961615;29;20090;-58
2022/03/24 00:41:03;;;;;;;67.05;44.08;;;6.80;99.90;;;;;;4962105;28;20375;-58
2022/03/24 00:43:30;;;;;;;71.90;44.25;;;6.80;99.90;;;;;;4963403;29;20054;-58
2022/03/24 00:45:56;;;;;;;72.72;46.92;;;6.70;99.90;;;;;;4960752;29;20106;-58
2022/03/24 00:48:23;;;;;;;79.47;49.28;;;6.70;99.90;;;;;;4963395;28;20129;-57
2022/03/24 00:50:49;;;;;;;83.80;52.95;;;6.80;99.90;;;;;;4962297;29;20056;-57
2022/03/24 00:53:16;;;;;;;85.05;51.33;;;6.80;99.90;;;;;;4962361;28;20145;-57
2022/03/24 00:55:43;;;;;;;84.13;53.33;;;6.90;99.90;;;;;;4962659;28;20594;-57
2022/03/24 00:58:08;;;;;;;82.95;52.92;;;6.90;99.90;;;;;;4960695;29;20047;-58
2022/03/24 01:00:36;;;;;;;80.13;51.53;;;6.90;99.90;;;;;;4961698;29;20078;-58
2022/03/24 01:03:06;;;;;;;85.63;52.70;;;6.90;99.90;;;;;;4960288;28;20158;-58
2022/03/24 01:05:32;;;;;;;83.88;52.15;;;6.90;99.90;;;;;;4962958;29;20047;-58
2022/03/24 01:07:58;;;;;;;79.57;49.88;;;7.00;99.90;;;;;;4961608;28;20075;-58
2022/03/24 01:10:24;;;;;;;82.63;51.83;;;6.90;99.90;;;;;;4962259;29;20051;-57
2022/03/24 01:12:50;;;;;;;81.05;50.65;;;6.90;99.90;;;;;;4961861;28;20435;-58
2022/03/24 01:15:22;;;;;;;79.20;52.00;;;6.90;99.90;;;;;;4961619;29;20082;-57
2022/03/24 01:17:49;;;;;;;;;;;6.80;99.90;;;;;;4963070;28;20047;-58
2022/03/24 01:20:15;;;;;;;71.15;45.50;;;6.70;99.90;;;;;;4961418;29;19922;-58
2022/03/24 01:22:41;;;;;;;83.85;49.63;;;6.60;99.90;;;;;;4962724;28;20058;-58
2022/03/24 01:25:07;;;;;;;76.10;47.47;;;6.60;99.90;;;;;;4961677;28;20051;-57
2022/03/24 01:27:34;;;;;;;77.38;48.30;;;6.60;99.90;;;;;;4961963;28;20047;-58
2022/03/24 01:30:01;;;;;;;77.60;48.53;;;6.50;99.90;;;;;;4962138;28;20043;-57
2022/03/24 01:32:27;;;;;;;75.95;47.90;;;6.50;99.90;;;;;;4961381;28;20118;-58
2022/03/24 01:34:55;;;;;;;75.90;47.35;;;6.40;99.90;;;;;;4962431;28;20039;-58
2022/03/24 01:37:23;;;;;;;82.15;50.97;;;6.30;99.90;;;;;;4961137;28;20074;-58
2022/03/24 01:39:50;;;;;;;76.82;48.65;;;6.20;99.90;;;;;;4962634;28;20093;-58
2022/03/24 01:42:18;;;;;;;78.28;49.60;;;6.20;99.90;;;;;;4960212;29;20046;-58
2022/03/24 01:44:48;;;;;;;82.85;50.25;;;6.30;99.90;;;;;;4961768;28;20046;-58
2022/03/24 01:47:15;;;;;;;84.97;50.30;;;6.30;99.90;;;;;;4960298;29;20043;-57
2022/03/24 01:49:44;;;;;;;89.47;52.55;;;6.40;99.90;;;;;;4961065;28;20058;-58
2022/03/24 01:52:12;;;;;;;83.88;52.33;;;6.40;99.90;;;;;;4962388;28;20051;-57
2022/03/24 01:54:46;;;;;;;81.45;49.30;;;6.40;99.90;;;;;;4960884;28;20050;-57
2022/03/24 01:57:14;;;;;;;78.00;49.05;;;6.40;99.90;;;;;;4962249;28;20035;-58
2022/03/24 01:59:40;;;;;;;78.47;49.95;;;6.40;99.90;;;;;;4960378;29;20436;-57
2022/03/24 02:02:07;;;;;;;78.78;48.97;;;6.40;99.90;;;;;;4961352;28;20082;-58
2022/03/24 02:04:36;;;;;;;77.72;48.80;;;6.40;99.90;;;;;;4961944;28;20055;-58
2022/03/24 02:07:03;;;;;;;77.78;46.92;;;6.20;99.90;;;;;;4959633;29;20042;-58
2022/03/24 02:09:30;;;;;;;78.18;48.50;;;6.20;99.90;;;;;;4962196;28;20043;-57
2022/03/24 02:11:56;;;;;;;89.18;54.22;;;6.20;99.90;;;;;;4960751;28;20455;-58
2022/03/24 02:14:21;;;;;;;91.90;54.45;;;6.30;99.90;;;;;;4960442;29;20047;-57
2022/03/24 02:16:49;;;;;;;87.07;53.58;;;6.30;99.90;;;;;;4959496;29;20215;-58
2022/03/24 02:19:19;;;;;;;87.20;53.05;;;6.30;99.90;;;;;;4959668;29;20043;-58
2022/03/24 02:21:45;;;;;;;83.90;52.63;;;6.30;99.90;;;;;;4961617;28;20578;-57
2022/03/24 02:24:13;;;;;;;87.35;53.65;;;6.30;99.90;;;;;;4959581;28;20031;-57
2022/03/24 02:26:40;;;;;;;95.95;56.75;;;6.30;99.90;;;;;;4961681;28;20060;-58
2022/03/24 02:29:07;;;;;;;86.03;53.75;;;6.30;99.90;;;;;;4960334;28;20615;-58
2022/03/24 02:31:40;;;;;;;83.85;52.08;;;6.30;99.90;;;;;;4961493;28;20078;-58
2022/03/24 02:36:59;;;;;;;85.32;50.50;;;6.30;99.90;;;;;;4960480;29;20054;-58
2022/03/24 02:39:26;;;;;;;85.13;52.30;;;6.20;99.90;;;;;;4961537;28;20047;-58
2022/03/24 02:41:56;;;;;;;85.65;51.13;;;6.20;99.90;;;;;;4960231;28;20099;-58
2022/03/24 02:44:24;;;;;;;82.43;51.42;;;6.10;99.90;;;;;;4961343;28;20051;-58
2022/03/24 02:46:53;;;;;;;86.95;51.25;;;6.10;99.90;;;;;;4960512;28;20043;-57
2022/03/24 02:49:26;;;;;;;83.90;50.45;;;6.10;99.90;;;;;;4960410;28;20051;-58
2022/03/24 02:51:54;;;;;;;84.43;51.28;;;6.10;99.90;;;;;;4961107;28;20058;-58
2022/03/24 02:54:21;;;;;;;95.30;54.80;;;6.00;99.90;;;;;;4958578;29;20051;-58
2022/03/24 02:56:48;;;;;;;90.97;53.55;;;6.00;99.90;;;;;;4961334;28;20042;-58
2022/03/24 02:59:15;;;;;;;90.03;53.05;;;6.10;99.90;;;;;;4959897;28;20070;-58
2022/03/24 03:01:42;;;;;;;91.72;54.72;;;6.00;99.90;;;;;;4961010;28;20067;-57
2022/03/24 03:04:09;;;;;;;88.07;53.08;;;6.00;99.90;;;;;;4960793;28;20062;-57
2022/03/24 03:06:35;;;;;;;95.38;55.67;;;5.90;99.90;;;;;;4960243;28;20043;-58
2022/03/24 03:09:02;;;;;;;86.72;51.38;;;5.90;99.90;;;;;;4961130;28;20082;-58
2022/03/24 03:11:31;;;;;;;88.75;53.45;;;5.90;99.90;;;;;;4958964;29;20059;-57
2022/03/24 03:13:58;;;;;;;87.18;52.42;;;5.90;99.90;;;;;;4961332;28;20054;-58
2022/03/24 03:16:25;;;;;;;91.53;52.63;;;5.90;99.90;;;;;;4960157;28;20052;-58
2022/03/24 03:18:52;;;;;;;94.65;54.83;;;5.90;99.90;;;;;;4959412;29;20111;-57
2022/03/24 03:21:17;;;;;;;94.35;53.47;;;5.80;99.90;;;;;;4960793;28;20124;-57
2022/03/24 03:23:44;;;;;;;90.30;53.42;;;5.80;99.90;;;;;;4959931;29;20051;-58
2022/03/24 03:26:11;;;;;;;91.65;54.78;;;5.80;99.90;;;;;;4961050;28;20457;-58
2022/03/24 03:28:37;;;;;;;90.72;54.53;;;5.80;99.90;;;;;;4959806;28;20060;-58
2022/03/24 03:31:05;;;;;;;93.68;55.15;;;5.80;99.90;;;;;;4959785;28;20679;-58
2022/03/24 03:33:34;;;;;;;94.00;54.63;;;5.80;99.90;;;;;;4958343;29;20055;-57
2022/03/24 03:36:00;;;;;;;90.40;54.13;;;5.70;99.90;;;;;;4963544;28;20512;-57
2022/03/24 03:38:26;;;;;;;92.25;54.40;;;5.80;99.90;;;;;;4964251;29;20559;-57
2022/03/24 03:40:54;;;;;;;90.35;55.67;;;5.60;99.90;;;;;;4963680;28;20038;-58
2022/03/24 03:43:20;;;;;;;93.43;55.47;;;5.60;99.90;;;;;;4963120;29;20118;-57
2022/03/24 03:45:45;;;;;;;93.00;53.47;;;5.70;99.90;;;;;;4963134;28;20059;-57
2022/03/24 03:48:12;;;;;;;93.20;54.22;;;5.70;99.90;;;;;;4963102;29;20645;-57
2022/03/24 03:50:41;;;;;;;87.28;53.05;;;5.70;99.90;;;;;;4963544;28;20076;-58
2022/03/24 03:53:08;;;;;;;91.57;54.33;;;5.70;99.90;;;;;;4963786;28;20051;-57
2022/03/24 03:55:35;;;;;;;89.90;51.75;;;5.70;99.90;;;;;;4963726;29;20499;-58
2022/03/24 03:58:02;;;;;;;92.60;52.72;;;5.50;99.90;;;;;;4961674;29;20085;-58
2022/03/24 04:03:12;;;;;;;91.00;52.85;;;5.60;99.90;;;;;;4962715;28;20111;-58
2022/03/24 04:05:38;;;;;;;92.78;53.92;;;5.60;99.90;;;;;;4962975;29;20051;-58
2022/03/24 04:08:04;;;;;;;89.22;52.20;;;5.60;99.90;;;;;;4961878;29;20051;-57
2022/03/24 04:10:30;;;;;;;89.60;53.58;;;5.50;99.90;;;;;;4963514;28;20107;-57
2022/03/24 04:12:57;;;;;;;89.15;54.55;;;5.50;99.90;;;;;;4963613;28;20476;-58
2022/03/24 04:15:24;;;;;;;95.47;57.75;;;5.50;99.90;;;;;;4962712;28;20055;-58
2022/03/24 04:17:53;;;;;;;87.50;52.30;;;5.50;99.90;;;;;;4963686;28;20075;-57
2022/03/24 04:20:21;;;;;;;91.03;53.80;;;5.50;99.90;;;;;;4962784;28;20039;-58
2022/03/24 04:22:50;;;;;;;85.75;49.88;;;5.50;99.90;;;;;;4963977;28;20478;-58
2022/03/24 04:25:26;;;;;;;82.82;51.53;;;5.40;99.90;;;;;;4963286;28;20483;-57
2022/03/24 04:27:52;;;;;;;84.50;49.53;;;5.30;99.90;;;;;;4962855;28;20057;-57
2022/03/24 04:30:18;;;;;;;85.28;50.05;;;5.30;99.90;;;;;;4962284;29;20318;-58
2022/03/24 04:32:44;;;;;;;82.80;49.97;;;5.30;99.90;;;;;;4962312;29;20058;-58
2022/03/24 04:35:16;;;;;;;78.15;47.63;;;5.30;99.90;;;;;;4963650;28;20094;-57
2022/03/24 04:37:43;;;;;;;83.28;49.83;;;5.30;99.90;;;;;;4962463;28;20055;-58
2022/03/24 04:40:11;;;;;;;83.25;46.83;;;5.30;99.90;;;;;;4963154;28;20550;-58
2022/03/24 04:42:38;;;;;;;82.78;48.15;;;5.20;99.90;;;;;;4963062;28;20047;-58
2022/03/24 04:45:04;;;;;;;76.07;45.97;;;5.20;99.90;;;;;;4962313;28;20047;-58
2022/03/24 04:47:30;;;;;;;76.03;47.42;;;5.20;99.90;;;;;;4962367;28;20084;-58
2022/03/24 04:49:56;;;;;;;75.10;45.85;;;5.20;99.90;;;;;;4962224;29;20862;-58
2022/03/24 04:52:22;;;;;;;76.25;46.60;;;5.10;99.90;;;;;;4962206;29;20082;-58
2022/03/24 04:54:48;;;;;;;78.07;46.75;;;5.10;99.90;;;;;;4962136;29;20047;-57
2022/03/24 04:57:14;;;;;;;79.20;47.35;;;5.10;99.90;;;;;;4961613;29;20051;-58
2022/03/24 04:59:40;;;;;;;79.78;46.63;;;5.10;99.90;;;;;;4961430;29;20074;-58
2022/03/24 05:02:08;;;;;;;78.55;46.47;;;5.10;99.90;;;;;;4962458;29;20039;-58
2022/03/24 05:04:34;;;;;;;78.22;46.58;;;5.10;99.90;;;;;;4962936;28;20047;-58
2022/03/24 05:07:00;;;;;;;73.38;44.72;;;5.10;99.90;;;;;;4961902;28;20058;-58
2022/03/24 05:09:26;;;;;;;82.72;46.78;;;5.00;99.90;;;;;;4962616;28;20063;-58
2022/03/24 05:11:51;;;;;;;76.78;45.83;;;5.10;99.90;;;;;;4961716;29;20102;-58
2022/03/24 05:14:17;;;;;;;76.18;45.75;;;5.00;99.90;;;;;;4962798;28;20051;-57
2022/03/24 05:16:43;;;;;;;76.20;42.95;;;5.00;99.90;;;;;;4961998;28;20050;-58
2022/03/24 05:19:08;;;;;;;76.05;44.22;;;5.00;99.90;;;;;;4962145;29;20793;-58
2022/03/24 05:21:34;;;;;;;73.78;44.25;;;5.00;99.90;;;;;;4962798;29;20043;-58
2022/03/24 05:24:00;;;;;;;71.78;42.97;;;4.90;99.90;;;;;;4961288;28;20050;-58
2022/03/24 05:26:29;;;;;;;68.93;41.67;;;4.90;99.90;;;;;;4962731;28;20419;-57
2022/03/24 05:28:55;;;;;;;70.15;41.58;;;4.90;99.90;;;;;;4961272;29;20051;-57
2022/03/24 05:31:24;;;;;;;73.80;42.70;;;4.90;99.90;;;;;;4962630;28;20047;-57
2022/03/24 05:33:51;;;;;;;69.32;42.42;;;4.90;99.90;;;;;;4960535;29;20143;-58
2022/03/24 05:36:17;;;;;;;68.78;40.63;;;4.90;99.90;;;;;;4961685;29;20050;-58
2022/03/24 05:38:43;;;;;;;64.65;38.75;;;5.20;99.90;;;;;;4962317;28;20047;-58
2022/03/24 05:41:12;;;;;;;71.63;40.47;;;4.90;99.90;;;;;;4961300;28;20051;-58
2022/03/24 05:43:38;;;;;;;63.53;37.38;;;4.90;99.90;;;;;;4962619;29;20031;-58
2022/03/24 05:46:04;;;;;;;55.97;33.63;;;4.90;99.90;;;;;;4960763;28;20054;-58
2022/03/24 05:48:30;;;;;;;53.55;33.38;;;4.80;99.90;;;;;;4962250;29;20051;-58
2022/03/24 05:50:55;;;;;;;52.60;31.40;;;4.80;99.90;;;;;;4961336;29;20062;-58
2022/03/24 05:53:21;;;;;;;37.85;26.08;;;4.90;99.90;;;;;;4961495;29;20098;-58
2022/03/24 05:55:48;;;;;;;38.28;24.92;;;4.90;99.90;;;;;;4960510;29;20055;-58
2022/03/24 05:58:13;;;;;;;47.33;29.33;;;4.90;99.90;;;;;;4960790;28;20053;-58
2022/03/24 06:00:41;;;;;;;44.47;29.90;;;4.80;99.90;;;;;;4962200;29;20071;-59
2022/03/24 06:03:07;;;;;;;42.65;28.38;;;4.80;99.90;;;;;;4960883;29;20043;-58
2022/03/24 06:05:33;;;;;;;41.10;26.90;;;4.90;99.90;;;;;;4961935;28;20043;-57
2022/03/24 06:08:00;;;;;;;35.15;25.52;;;4.90;99.90;;;;;;4961207;29;20051;-58
2022/03/24 06:10:27;;;;;;;38.83;25.23;;;4.90;99.90;;;;;;4961221;29;20050;-58
2022/03/24 06:12:53;;;;;;;39.85;26.38;;;5.00;99.90;;;;;;4961706;28;20079;-58
2022/03/24 06:15:19;;;;;;;41.08;27.63;;;5.00;99.90;;;;;;4960436;28;20039;-58
2022/03/24 06:17:45;;;;;;;34.40;22.15;;;4.90;99.90;;;;;;4960220;29;20078;-58
2022/03/24 06:20:13;;;;;;;43.03;27.48;;;4.80;99.90;;;;;;4960343;28;20043;-57
2022/03/24 06:22:40;;;;;;;43.47;27.73;;;4.90;99.90;;;;;;4961818;28;20039;-57
2022/03/24 06:25:06;;;;;;;36.22;24.55;;;5.00;99.90;;;;;;4960806;29;20058;-58
2022/03/24 06:27:32;;;;;;;41.15;25.90;;;4.80;99.90;;;;;;4960971;28;20055;-58
2022/03/24 06:29:58;;;;;;;34.88;25.27;;;4.90;99.90;;;;;;4960046;29;20059;-58
2022/03/24 06:32:23;;;;;;;43.88;28.40;;;5.00;99.90;;;;;;4960541;29;20039;-58
2022/03/24 06:34:50;;;;;;;35.65;24.38;;;5.10;99.90;;;;;;4961468;29;20113;-57
2022/03/24 06:37:17;;;;;;;36.92;24.77;;;5.10;99.90;;;;;;4960370;29;20079;-58
2022/03/24 06:39:42;;;;;;;38.28;25.40;;;5.30;99.90;;;;;;4960373;29;20086;-57
2022/03/24 06:42:08;;;;;;;36.60;25.00;;;5.30;99.90;;;;;;4959279;29;20503;-58
2022/03/24 06:44:35;;;;;;;33.20;22.95;;;5.40;99.90;;;;;;4959766;28;20043;-58
2022/03/24 06:47:01;;;;;;;36.50;25.25;;;5.20;99.90;;;;;;4960893;29;20058;-57
2022/03/24 06:49:26;;;;;;;46.13;29.10;;;5.40;99.90;;;;;;4942844;29;20079;-57
2022/03/24 06:51:52;;;;;;;50.42;31.52;;;5.30;99.90;;;;;;4961312;29;20043;-57
2022/03/24 06:54:18;;;;;;;51.83;31.80;;;5.20;99.90;;;;;;4960193;29;20043;-58
2022/03/24 06:56:44;;;;;;;49.22;31.55;;;5.30;99.90;;;;;;4961603;28;20095;-57
2022/03/24 06:59:10;;;;;;;49.38;30.15;;;5.30;99.90;;;;;;4960274;29;20054;-57
2022/03/24 07:01:36;;;;;;;52.15;32.15;;;5.30;99.90;;;;;;4960953;29;20053;-57
2022/03/24 07:04:02;;;;;;;56.55;35.20;;;5.40;99.90;;;;;;4959395;29;20138;-55
2022/03/24 07:06:28;;;;;;;58.97;36.42;;;5.60;99.90;;;;;;4959015;29;20040;-58
2022/03/24 07:08:53;;;;;;;57.50;35.95;;;5.80;99.90;;;;;;4961112;28;20126;-57
2022/03/24 07:11:19;;;;;;;50.28;31.92;;;5.90;99.90;;;;;;4963750;29;20086;-57
2022/03/24 07:13:45;;;;;;;69.63;39.80;;;6.00;99.90;;;;;;4964901;29;20107;-57
2022/03/24 07:16:10;;;;;;;63.35;39.47;;;6.10;99.90;;;;;;4963700;28;20062;-56
2022/03/24 07:18:36;;;;;;;78.32;45.08;;;6.20;99.90;;;;;;4963164;29;20051;-57
2022/03/24 07:21:02;;;;;;;83.57;49.03;;;6.40;99.90;;;;;;4964348;29;20047;-57
2022/03/24 07:23:28;;;;;;;90.93;53.75;;;6.50;99.90;;;;;;4964118;28;20045;-57
2022/03/24 07:25:53;;;;;;;98.68;57.65;;;6.70;99.90;;;;;;4963234;29;20549;-57
2022/03/24 07:28:19;;;;;;;100.57;58.63;;;6.80;99.90;;;;;;4963607;28;20419;-58
2022/03/24 07:30:50;;;;;;;100.55;60.05;;;6.90;99.90;;;;;;4965164;28;20051;-57
2022/03/24 07:33:18;;;;;;;103.70;58.70;;;7.00;99.90;;;;;;4961913;29;20057;-57
2022/03/24 07:35:45;;;;;;;92.38;58.67;;;7.10;99.90;;;;;;4947192;29;20043;-58
2022/03/24 07:38:11;;;;;;;94.20;55.80;;;7.20;99.90;;;;;;4962790;29;20063;-57
2022/03/24 07:40:37;;;;;;;101.35;61.63;;;7.40;99.90;;;;;;4963701;28;20051;-57
2022/03/24 07:43:02;;;;;;;100.85;61.67;;;7.60;99.90;;;;;;4963013;29;20415;-57
2022/03/24 07:45:28;;;;;;;98.35;57.75;;;7.60;99.90;;;;;;4963220;28;20066;-57
2022/03/24 07:48:27;;;;;;;95.43;57.03;;;7.80;99.90;;;;;;4964406;29;20039;-58
2022/03/24 07:50:56;;;;;;;89.53;54.83;;;7.80;99.90;;;;;;4963636;28;20208;-57
2022/03/24 07:53:44;;;;;;;83.03;53.72;;;7.90;99.90;;;;;;4963556;28;20530;-57
2022/03/24 07:56:10;;;;;;;95.93;55.55;;;7.90;99.90;;;;;;4963280;29;20069;-57
2022/03/24 07:58:36;;;;;;;85.90;53.88;;;8.20;99.90;;;;;;4963108;29;20051;-57
2022/03/24 08:01:02;;;;;;;83.70;52.70;;;8.20;99.90;;;;;;4963046;29;20043;-57
2022/03/24 08:03:28;;;;;;;90.95;57.58;;;8.40;99.90;;;;;;4963230;28;20102;-58
2022/03/24 08:05:55;;;;;;;80.63;51.17;;;8.50;99.90;;;;;;4962480;29;20416;-57
2022/03/24 08:08:21;;;;;;;80.72;50.72;;;8.50;99.90;;;;;;4963837;29;20514;-58
2022/03/24 08:10:50;;;;;;;78.07;50.40;;;8.60;99.90;;;;;;4963098;29;20050;-57
2022/03/24 08:13:18;;;;;;;78.55;50.95;;;8.80;99.90;;;;;;4964017;28;20567;-57
2022/03/24 08:15:44;;;;;;;81.72;50.85;;;8.90;99.90;;;;;;4962615;28;20043;-58
2022/03/24 08:18:11;;;;;;;77.25;49.45;;;8.90;99.90;;;;;;4964275;28;20056;-58
2022/03/24 08:20:37;;;;;;;78.10;50.97;;;9.20;99.90;;;;;;4962272;28;20090;-57
2022/03/24 08:23:04;;;;;;;77.97;51.45;;;9.20;99.90;;;;;;4962885;28;20043;-57
2022/03/24 08:25:30;;;;;;;77.25;50.35;;;9.30;99.90;;;;;;4963374;28;20099;-57
2022/03/24 08:27:56;;;;;;;80.57;51.55;;;9.40;99.90;;;;;;4962482;29;20499;-57
2022/03/24 08:30:23;;;;;;;81.63;51.80;;;9.40;99.90;;;;;;4963698;28;20051;-57
2022/03/24 08:32:48;;;;;;;78.63;51.55;;;9.60;99.90;;;;;;4962439;28;20054;-57
2022/03/24 08:35:14;;;;;;;77.03;51.45;;;9.70;99.90;;;;;;4964122;29;20035;-57
2022/03/24 08:37:40;;;;;;;74.63;50.45;;;9.80;99.90;;;;;;4962469;28;20051;-57
2022/03/24 08:40:07;;;;;;;80.00;51.83;;;10.00;99.90;;;;;;4963269;29;20447;-57
2022/03/24 08:42:35;;;;;;;81.50;54.30;;;10.00;99.90;;;;;;4961715;29;20079;-57
2022/03/24 08:45:01;;;;;;;80.45;52.35;;;10.10;99.90;;;;;;4962394;28;20039;-57
2022/03/24 08:47:27;;;;;;;79.55;52.80;;;10.20;99.90;;;;;;4963215;29;20103;-57
2022/03/24 08:49:52;;;;;;;79.45;51.03;;;10.30;99.90;;;;;;4962463;29;20036;-57
2022/03/24 08:52:21;;;;;;;78.50;52.15;;;10.40;99.90;;;;;;4963416;29;20043;-58
2022/03/24 08:54:47;;;;;;;77.32;47.75;;;10.50;99.90;;;;;;4960829;28;20098;-57
2022/03/24 08:57:13;;;;;;;79.55;50.42;;;10.70;99.90;;;;;;4962885;29;20051;-58
2022/03/24 08:59:38;;;;;;;80.25;52.72;;;10.70;99.90;;;;;;4962707;28;20051;-58
2022/03/24 09:02:05;;;;;;;74.35;47.05;;;10.80;99.90;;;;;;4962075;28;20058;-58
2022/03/24 09:04:30;;;;;;;68.22;45.20;;;10.90;99.90;;;;;;4961726;29;20515;-57
2022/03/24 09:06:56;;;;;;;75.57;45.17;;;10.90;99.90;;;;;;4961688;29;20070;-57
2022/03/24 09:09:22;;;;;;;78.47;50.13;;;11.00;99.90;;;;;;4961733;29;20051;-57
2022/03/24 09:11:51;;;;;;;70.82;46.63;;;11.00;99.90;;;;;;4961799;29;20039;-58
2022/03/24 09:14:17;;;;;;;74.72;46.78;;;11.10;99.90;;;;;;4962647;28;20051;-62
2022/03/24 09:16:44;;;;;;;76.43;46.88;;;11.20;99.90;;;;;;4962284;28;20050;-57
2022/03/24 09:19:10;;;;;;;78.68;49.10;;;11.40;99.90;;;;;;4961941;28;20574;-58
2022/03/24 09:21:36;;;;;;;70.32;47.75;;;11.40;99.90;;;;;;4962716;28;20047;-57
2022/03/24 09:24:02;;;;;;;73.40;49.17;;;11.50;99.90;;;;;;4961487;28;20122;-57
2022/03/24 09:26:28;;;;;;;72.72;46.63;;;11.60;99.90;;;;;;4962444;29;20119;-57
2022/03/24 09:28:53;;;;;;;77.30;48.13;;;11.60;99.90;;;;;;4960153;29;20059;-57
2022/03/24 09:31:20;;;;;;;73.38;48.35;;;11.70;99.90;;;;;;4962656;29;20043;-58
2022/03/24 09:33:46;;;;;;;75.22;47.58;;;11.70;99.90;;;;;;4961427;28;20062;-57
2022/03/24 09:36:12;;;;;;;74.38;46.35;;;11.70;99.90;;;;;;4961617;28;20055;-57
2022/03/24 09:38:38;;;;;;;72.80;47.88;;;11.90;99.90;;;;;;4961101;29;20585;-58
2022/03/24 09:41:06;;;;;;;72.55;48.03;;;11.90;99.90;;;;;;4961191;28;20054;-57
2022/03/24 09:43:34;;;;;;;78.45;50.13;;;12.00;99.90;;;;;;4962519;28;20079;-58
2022/03/24 09:46:02;;;;;;;71.13;45.65;;;12.00;99.90;;;;;;4961035;28;20095;-58
2022/03/24 09:48:28;;;;;;;74.95;47.78;;;12.20;99.90;;;;;;4962173;28;20054;-57
2022/03/24 09:50:54;;;;;;;73.93;48.85;;;12.20;99.90;;;;;;4961838;29;20039;-58
2022/03/24 09:53:20;;;;;;;72.05;48.45;;;12.30;99.90;;;;;;4960152;29;20059;-57
2022/03/24 09:55:50;;;;;;;77.50;50.78;;;12.40;99.90;;;;;;4962249;28;20051;-57
2022/03/24 09:58:16;;;;;;;74.15;47.92;;;12.40;99.90;;;;;;4960868;28;20054;-58
2022/03/24 10:00:43;;;;;;;78.40;50.42;;;12.40;99.90;;;;;;4962412;28;20043;-58
2022/03/24 10:03:17;;;;;;;75.60;47.75;;;12.40;99.90;;;;;;4960817;28;20130;-58
2022/03/24 10:06:00;;;;;;;75.47;47.83;;;12.40;99.90;;;;;;4961708;28;20055;-58
2022/03/24 10:08:27;;;;;;;70.03;47.10;;;12.60;99.90;;;;;;4961867;28;20047;-57
2022/03/24 10:11:00;;;;;;;70.43;45.28;;;12.60;99.90;;;;;;4960870;28;20102;-57
2022/03/24 10:13:44;;;;;;;72.72;49.13;;;12.70;99.90;;;;;;4944632;28;20118;-58
2022/03/24 10:16:11;;;;;;;69.28;47.83;;;12.70;99.90;;;;;;4960500;28;20043;-58
2022/03/24 10:18:37;;;;;;;69.43;45.80;;;12.80;99.90;;;;;;4960274;29;20547;-57
2022/03/24 10:21:08;;;;;;;65.22;42.25;;;12.90;99.90;;;;;;4961315;29;20085;-58
2022/03/24 10:23:43;;;;;;;69.45;45.30;;;13.00;99.90;;;;;;4960740;28;20039;-57
2022/03/24 10:26:08;;;;;;;67.53;45.45;;;13.10;99.90;;;;;;4961810;28;20139;-58
2022/03/24 10:28:34;;;;;;;66.18;42.47;;;13.20;99.90;;;;;;4960531;28;20090;-57
2022/03/24 10:31:02;;;;;;;65.20;42.78;;;13.30;99.90;;;;;;4961849;29;20050;-57
2022/03/24 10:33:45;;;;;;;63.53;41.85;;;13.40;99.90;;;;;;4960738;29;20062;-57
2022/03/24 10:36:17;;;;;;;65.80;42.63;;;13.40;99.90;;;;;;4959186;28;20062;-58
2022/03/24 10:38:49;;;;;;;64.35;42.15;;;13.50;99.90;;;;;;4961398;28;20054;-58
2022/03/24 10:41:18;;;;;;;66.70;44.90;;;13.50;99.90;;;;;;4960279;28;20047;-58
2022/03/24 10:43:46;;;;;;;59.72;39.30;;;13.50;99.90;;;;;;4961214;28;20706;-58
2022/03/24 10:46:17;;;;;;;61.90;42.03;;;13.40;99.90;;;;;;4960182;28;20043;-58
2022/03/24 10:48:43;;;;;;;65.32;41.15;;;13.50;99.90;;;;;;4960916;28;20050;-57
2022/03/24 10:51:09;;;;;;;63.47;41.03;;;13.60;99.90;;;;;;4960998;28;20051;-58
2022/03/24 10:53:40;;;;;;;58.38;38.83;;;13.70;99.90;;;;;;4960191;28;20102;-57
2022/03/24 10:56:29;;;;;;;60.15;40.70;;;13.70;99.90;;;;;;4961514;28;20491;-57
2022/03/24 10:58:59;;;;;;;60.15;40.97;;;13.80;99.90;;;;;;4960128;28;20051;-57
2022/03/24 11:01:28;;;;;;;56.47;38.58;;;13.90;99.90;;;;;;4959501;29;20712;-58
2022/03/24 11:03:55;;;;;;;55.72;38.15;;;14.00;99.90;;;;;;4960778;28;20047;-57
2022/03/24 11:06:24;;;;;;;60.97;41.95;;;14.00;99.90;;;;;;4960192;28;20043;-58
2022/03/24 11:09:00;;;;;;;63.20;41.85;;;14.00;99.90;;;;;;4961173;28;20074;-57
2022/03/24 11:11:28;;;;;;;63.53;40.95;;;14.10;99.90;;;;;;4959975;28;20046;-58
2022/03/24 11:13:55;;;;;;;64.03;41.25;;;14.10;99.90;;;;;;4961258;28;20102;-58
2022/03/24 11:16:23;;;;;;;61.97;42.38;;;14.10;99.90;;;;;;4960177;29;20047;-57
2022/03/24 11:18:50;;;;;;;57.80;37.10;;;14.10;99.90;;;;;;4959310;29;20043;-58
2022/03/24 11:21:25;;;;;;;51.90;35.00;;;14.10;99.90;;;;;;4960921;28;20062;-58
2022/03/24 11:23:53;;;;;;;54.20;37.50;;;14.10;99.90;;;;;;4959871;28;20051;-57
2022/03/24 11:26:21;;;;;;;54.50;37.40;;;14.20;99.90;;;;;;4960821;28;20054;-57
2022/03/24 11:28:49;;;;;;;57.30;36.20;;;14.10;99.90;;;;;;4959935;28;20063;-57
2022/03/24 11:31:16;;;;;;;50.65;35.15;;;14.10;99.90;;;;;;4960989;29;20062;-57
2022/03/24 11:33:51;;;;;;;51.70;33.65;;;14.20;99.90;;;;;;4960144;28;20082;-56
2022/03/24 11:36:18;;;;;;;48.95;34.03;;;14.20;99.90;;;;;;4960128;28;20039;-57
2022/03/24 11:38:48;;;;;;;53.40;36.58;;;14.30;99.90;;;;;;4961033;28;20043;-58
2022/03/24 11:41:25;;;;;;;48.25;33.25;;;14.40;99.90;;;;;;4959796;28;20075;-58
2022/03/24 11:43:55;;;;;;;48.08;33.03;;;14.40;99.90;;;;;;4961151;28;20075;-58
2022/03/24 11:46:46;;;;;;;47.92;32.17;;;14.40;99.90;;;;;;4959754;28;20156;-58
2022/03/24 11:49:17;;;;;;;44.50;32.20;;;14.40;99.90;;;;;;4958704;29;20102;-57
2022/03/24 11:51:56;;;;;;;46.92;32.38;;;14.50;99.60;;;;;;4961040;28;20043;-57
2022/03/24 11:54:33;;;;;;;45.65;30.35;;;14.50;99.90;;;;;;4959626;28;20055;-57
2022/03/24 11:57:27;;;;;;;48.78;33.25;;;14.60;98.50;;;;;;4963712;28;20039;-57
2022/03/24 12:00:14;;;;;;;45.53;32.20;;;14.70;97.70;;;;;;4962661;29;20051;-58
2022/03/24 12:02:44;;;;;;;48.53;33.03;;;14.80;96.60;;;;;;4963028;29;20508;-57
2022/03/24 12:05:11;;;;;;;44.63;31.50;;;14.80;98.60;;;;;;4962825;29;20428;-57
2022/03/24 12:07:37;;;;;;;45.80;32.00;;;14.70;96.40;;;;;;4961738;29;20081;-57
2022/03/24 12:10:08;;;;;;;46.03;31.80;;;14.70;96.70;;;;;;4963596;28;20047;-57
2022/03/24 12:12:35;;;;;;;48.53;31.65;;;14.80;94.10;;;;;;4963531;28;20083;-57
2022/03/24 12:15:15;;;;;;;44.53;31.02;;;14.80;95.90;;;;;;4962947;28;20119;-57
2022/03/24 12:18:15;;;;;;;46.92;33.58;;;14.80;93.40;;;;;;4962483;29;20066;-57
2022/03/24 12:20:44;;;;;;;46.38;32.55;;;14.80;92.90;;;;;;4963116;28;20050;-58
2022/03/24 12:23:10;;;;;;;46.60;31.42;;;14.90;93.50;;;;;;4963342;28;20051;-57
2022/03/24 12:25:36;;;;;;;46.40;31.73;;;14.90;93.90;;;;;;4963682;28;20602;-58
2022/03/24 12:28:11;;;;;;;48.33;31.98;;;14.90;93.80;;;;;;4962629;28;20080;-55
2022/03/24 12:30:47;;;;;;;46.05;32.40;;;15.00;93.10;;;;;;4964027;28;20435;-58
2022/03/24 12:33:15;;;;;;;48.90;33.40;;;15.00;93.00;;;;;;4962465;28;20051;-57
2022/03/24 12:35:52;;;;;;;53.60;34.75;;;15.10;93.20;;;;;;4963407;28;20248;-58
2022/03/24 12:38:35;;;;;;;51.08;35.25;;;15.00;92.30;;;;;;4963493;28;20051;-57
2022/03/24 12:41:04;;;;;;;48.25;32.42;;;15.10;92.40;;;;;;4962442;29;20043;-57
2022/03/24 12:43:39;;;;;;;47.90;33.60;;;15.10;93.00;;;;;;4963651;29;20129;-57